Main page
METAR-TAF:

METAR-TAF

Airports :

Eleusina, Greece

latitude: 38-04N, longitude: 023-33E, elevation: 44 m

Current weather observation

The report was made 13 minutes ago, at 09:50 UTC
Wind 12 kt from the North/Northwest with gusts up to 22 kt
Temperature 24°C
Humidity 34%
Pressure 1021 hPa
Visibility 10 km or more
no clouds below 1500 m and no cumulonimbus

METAR: LGEL 190950Z 34012G22KT CAVOK 24/07 Q1021

Time: 13:03 (10:03 UTC)

Forecast

The report was made 5 hours and 3 minutes ago, at 05:00 UTC
Forecast valid from 19 at 06 UTC to 20 at 06 UTC
Wind 12 kt from the North/Northwest
Visibility 10 km or more
Few clouds at a height of 2500 ft
Temporary
from 19 at 06 UTC to 19 at 15 UTC
Wind 15 kt from the North/Northwest with gusts up to 25 kt

TAF: LGEL 190500Z 1906/2006 33012KT 9999 FEW025 TEMPO 1906/1915 34015G25KT

Weather observations and forecasts of more than 4000 airports (METAR and TAF reports).

The available stations are represented by yellow and red dots on the map.

Hover mouse over dot to see the name of the station.

Then click to see weather observations and forecasts.

To change the map : click on the green buttons with a black cross to zoom in, on the green button with a dash to zoom out, or on the green arrows for adjacent maps.


METAR-TAF: